Highlands Peak, California Weather observations

Data are for observation ending at time listed.
 Day   Time    Ave.   Ave.  Ave.  Vector   Max.   Stn.    Total    Solar   Ave.  
  of    of     Air    Rel.  Wind   Wind    Wind   Baro.  Precip.   Rad.    Soil  
Year   Day     Temp.  Hum.  Speed  Dir.    Gust   Pres.                    Temp. 
2016   (PST)    F      %     mph   deg.    mph     mb.     in.     W/m2     F   
------------------------------------------------------------------------------
 273   20:50   69.3    20    1.2   352      3.3   932.6    0.00       0    84.0
 273   21:00   69.0    20    0.6   312      2.4   932.6    0.00       0    83.8
 273   21:10   69.2    18    2.7   293      4.2   932.7    0.00       0    83.5
 273   21:20   68.7    20    3.9   299      4.5   932.7    0.00       0    83.3
 273   21:30   67.6    24    3.6   307      4.5   932.7    0.00       0    83.1
 273   21:40   67.8    23    3.9   307      5.1   932.7    0.00       0    82.8
 273   21:50   67.8    22    4.4   311      5.8   932.7    0.00       0    82.6
 273   22:00   67.9    22    3.8   310      4.7   932.8    0.00       0    82.4
 273   22:10   68.4    21    2.4   297      3.3   932.8    0.00       0    82.0
 273   22:20   69.5    21    1.9   280      2.4   932.8    0.00       0    81.7
 273   22:30   69.2    17    2.5    18      5.0   932.8    0.00       0    81.6
 273   22:40   69.0    17    2.2    79      3.7   932.8    0.00       0    81.4
 273   22:50   69.1    19    2.9    91      3.5   932.8    0.00       0    81.4
 273   23:00   69.6    20    2.4   149      3.3   932.8    0.00       0    81.2
 273   23:10   70.2    21    1.4   211      2.3   932.7    0.00       0    81.0
 273   23:20   69.9    21    0.5   311      1.8   932.7    0.00       0    80.6
 273   23:30   70.4    21    1.7   337      2.3   932.6    0.00       0    80.3
 273   23:40   70.3    20    2.4    17      3.7   932.5    0.00       0    80.3
 273   23:50   70.5    19    2.9    47      3.4   932.5    0.00       0    80.1
 274    0:00   69.8    17    4.1    37      6.6   932.4    0.00       0    79.9
 274    0:10   68.3    15    5.2    36      6.6   932.3    0.00       0    79.7
 274    0:20   68.5    17    3.0    68      5.6   932.3    0.00       0    79.5
 274    0:30   68.9    18    0.3   128      1.8   932.3    0.00       0    79.3
 274    0:40   68.5    18    0.7    91      2.0   932.3    0.00       0    79.1
 274    0:50   69.2    18    1.4    73      2.1   932.4    0.00       0    79.0
 274    1:00   70.1    17    0.6     3      2.4   932.4    0.00       0    78.9
 274    1:10   70.0    17    1.2   357      3.2   932.5    0.00       0    78.6
 274    1:20   69.9    19    2.0   299      3.6   932.5    0.00       0    78.4
 274    1:30   69.7    20    2.6   303      4.1   932.5    0.00       0    78.2
 274    1:40   69.4    21    1.3   339      2.3   932.5    0.00       0    78.1
 274    1:50   69.7    20    1.0   335      2.6   932.4    0.00       0    77.9
 274    2:00   68.7    20    2.9    12      5.8   932.4    0.00       0    77.7
 274    2:10   67.1    22    5.1    32      6.9   932.4    0.00       0    77.6
 274    2:20   66.9    22    4.7    23      6.0   932.3    0.00       0    77.5
 274    2:30   67.6    22    3.8     7      5.5   932.3    0.00       0    77.3
 274    2:40   67.7    22    3.6    37      5.5   932.2    0.00       0    77.1
 274    2:50   67.3    22    3.9    35      5.6   932.2    0.00       0    76.9
 274    3:00   67.6    22    3.6    11      4.8   932.2    0.00       0    76.7
 274    3:10   67.0    22    3.8    20      4.9   932.2    0.00       0    76.6
 274    3:20   66.5    23    3.5   340      4.7   932.2    0.00       0    76.5
 274    3:30   65.9    24    3.8   331      4.7   932.2    0.00       0    76.5
 274    3:40   66.6    23    4.2   343      5.1   932.2    0.00       0    76.4
 274    3:50   67.1    22    4.2   356      5.0   932.2    0.00       0    76.2
 274    4:00   67.6    23    3.4   353      4.1   932.2    0.00       0    76.1
 274    4:10   67.9    23    2.5   333      3.9   932.2    0.00       0    75.9
 274    4:20   68.1    23    1.7   333      2.6   932.2    0.00       0    75.8
 274    4:30   68.3    23    1.5   308      2.6   932.1    0.00       0    75.5
 274    4:40   68.1    23    2.5   278      2.8   932.1    0.00       0    75.3
 274    4:50   67.7    22    2.2   266      2.7   932.2    0.00       0    75.1
 274    5:00   67.1    22    1.4   255      2.4   932.2    0.00       0    74.9
 274    5:10   66.9    22    1.5   290      1.9   932.2    0.00       0    74.8
 274    5:20   66.3    16    2.8    68      4.5   932.3    0.00       0    74.9
 274    5:30   65.9    16    1.6    54      3.1   932.3    0.00       0    74.9
 274    5:40   66.7    20    0.8   305      1.9   932.4    0.00       0    74.8
 274    5:50   67.0    20    1.5    14      2.9   932.4    0.00       0    74.7
 274    6:00   67.1    28    3.0   335      4.0   932.4    0.00       2    74.6
 274    6:10   66.8    29    2.8   344      3.9   932.4    0.00       6    74.5
 274    6:20   67.4    29    2.2   344      3.1   932.5    0.00      10    74.3
 274    6:30   67.8    26    0.9    18      2.2   932.5    0.00      13    74.2
 274    6:40   67.6    27    1.4   247      2.9   932.5    0.00      17    74.0
 274    6:50   67.1    27    1.9   250      2.6   932.6    0.00      64    73.8
 274    7:00   67.9    26    0.8   230      1.3   932.7    0.00     177    73.7
 274    7:10   69.5    24    0.5   159      1.7   932.8    0.00     215    73.6
 274    7:20   70.7    24    1.0   116      1.7   932.8    0.00     252    73.6
 274    7:30   71.5    24    1.0   110      2.1   932.8    0.00     291    73.5
 274    7:40   71.4    23    0.7   236      1.8   932.9    0.00     329    73.3
 274    7:50   69.7    24    1.3   203      2.5   932.9    0.00     366    73.3
 274    8:00   70.7    24    2.5   177      4.4   932.8    0.00     402    73.3
 274    8:10   70.6    25    2.3   186      3.7   932.9    0.00     438    73.3
 274    8:20   71.1    25    2.1   179      3.4   933.0    0.00     472    73.3
 274    8:30   70.6    25    2.5   221      4.1   933.1    0.00     505    73.2
 274    8:40   70.0    26    3.5   248      5.6   933.2    0.00     537    73.2
 274    8:50   69.8    26    2.5   265      3.7   933.2    0.00     567    73.1
 274    9:00   70.3    26    1.8   270      2.8   933.2    0.00     597    73.1
 274    9:10   70.7    27    2.7   260      4.2   933.3    0.00     625    73.1
 274    9:20   70.9    27    3.6   257      5.3   933.3    0.00     652    73.2
 274    9:30   71.4    27    3.1   259      4.9   933.3    0.00     678    73.3
 274    9:40   71.6    27    3.6   255      5.4   933.3    0.00     703    73.4
 274    9:50   71.4    27    3.5   260      5.1   933.3    0.00     725    73.6
 274   10:00   71.6    27    3.8   259      5.5   933.3    0.00     743    73.8
 274   10:10   72.0    27    3.8   256      5.7   933.3    0.00     762    74.0
 274   10:20   71.8    28    4.7   258      6.3   933.3    0.00     778    74.2
 274   10:30   71.9    30    4.4   260      6.1   933.3    0.00     793    74.4
 274   10:40   72.0    30    4.2   251      5.9   933.3    0.00     806    74.6
 274   10:50   71.6    30    4.2   254      6.9   933.3    0.00     817    74.9
 274   11:00   72.2    30    4.1   271      7.1   933.2    0.00     826    75.1
 274   11:10   72.5    30    4.1   254      7.1   933.2    0.00     836    75.4
 274   11:20   72.2    31    4.2   262      6.4   933.2    0.00     842    75.7
 274   11:30   72.0    32    4.5   264      6.9   933.2    0.00     846    76.0
 274   11:40   71.6    32    5.4   260      7.8   933.2    0.00     849    76.3
 274   11:50   71.7    32    4.8   262      7.7   933.1    0.00     851    76.6
 274   12:00   72.1    31    5.3   266      7.7   933.0    0.00     851    76.9
 274   12:10   71.4    32    4.6   257      7.7   933.0    0.00     851    77.3
 274   12:20   71.8    30    3.9   266      6.8   932.9    0.00     847    77.5
 274   12:30   71.9    31    4.6   256      7.8   932.8    0.00     842    77.8
 274   12:40   71.6    31    4.2   262      8.0   932.7    0.00     837    78.1
 274   12:50   72.9    29    4.3   265      6.8   932.5    0.00     828    78.4
 274   13:00   72.6    29    5.1   260      7.5   932.3    0.00     816    78.7
 274   13:10   71.9    28    4.8   253      7.1   932.3    0.00     803    79.1
 274   13:20   72.1    28    4.3   267      8.2   932.2    0.00     790    79.5
 274   13:30   72.3    26    4.2   262      7.2   932.1    0.00     774    79.8
 274   13:40   72.5    26    4.6   259      7.8   932.0    0.00     758    80.1
 274   13:50   73.2    25    5.1   258      8.4   932.0    0.00     741    80.5
 274   14:00   72.7    24    5.4   259      8.4   931.9    0.00     720    80.9
 274   14:10   72.6    23    5.3   261      8.3   931.8    0.00     697    81.2
 274   14:20   72.5    23    4.4   267      7.6   931.8    0.00     674    81.6
 274   14:30   73.1    23    5.0   264      7.6   931.7    0.00     630    81.9
 274   14:40   72.8    23    5.1   259      7.5   931.7    0.00     622    82.3
 274   14:50   72.1    23    5.3   255      8.0   931.7    0.00     593    82.6
 274   15:00   72.0    22    5.8   258      8.8   931.6    0.00     564    82.9
 274   15:10   72.0    22    5.2   268      8.0   931.6    0.00     533    83.2
 274   15:20   72.5    21    5.8   268      9.8   931.5    0.00     501    83.5
 274   15:30   71.9    19    6.6   273      9.4   931.4    0.00     467    83.8
 274   15:40   72.3    19    5.7   264      8.9   931.4    0.00     433    84.0
 274   15:50   72.4    19    4.9   248      6.9   931.3    0.00     398    84.2
 274   16:00   72.1    17    4.3   259      7.7   931.3    0.00     362    84.4
 274   16:10   72.5    18    5.5   268      8.6   931.2    0.00     325    84.6
 274   16:20   72.6    14    5.8   268      9.1   931.2    0.00     288    84.7
 274   16:30   72.4    10    5.6   266      8.8   931.2    0.00     252    84.8
 274   16:40   72.1    13    4.4   269      6.6   931.2    0.00     217    85.0
 274   16:50   72.2    13    3.1   250      6.1   931.2    0.00     183    85.1
 274   17:00   72.6    14    1.0   227      2.6   931.1    0.00     151    85.2
 274   17:10   72.1    15    3.0   262      4.9   931.0    0.00     121    85.4
 274   17:20   71.3    14    4.7   272      6.4   931.0    0.00      93    85.4
 274   17:30   70.4    12    4.8   277      6.2   931.0    0.00      67    85.3
 274   17:40   69.5    11    3.5   296      5.6   930.9    0.00      43    85.3
 274   17:50   68.2    12    3.8   323      4.5   930.9    0.00      23    85.3
 274   18:00   66.8    14    4.5   326      4.7   930.8    0.00       6    85.3
 274   18:10   66.5    15    3.9   336      4.6   930.7    0.00       1    85.2
 274   18:20   66.5    15    3.8   329      4.5   930.6    0.00       0    85.1
 274   18:30   66.0    16    4.6   358      6.7   930.5    0.00       0    85.0
 274   18:40   65.5    21    4.6    13      6.6   930.5    0.00       0    84.8
 274   18:50   66.4    18    3.9   349      5.6   930.5    0.00       0    84.6
 274   19:00   66.7    18    4.0     4      5.8   930.4    0.00       0    84.4
 274   19:10   66.4    18    4.0    26      4.8   930.4    0.00       0    84.2
 274   19:20   66.4    19    3.0    26      3.9   930.4    0.00       0    84.0
 274   19:30   67.0    18    2.7   340      3.8   930.4    0.00       0    83.8
 274   19:40   66.7    22    2.6   353      4.3   930.4    0.00       0    83.5
 274   19:50   66.1    22    3.3   327      5.3   930.5    0.00       0    83.4
 274   20:00   65.4    22    3.8   320      5.8   930.6    0.00       0    83.2
 274   20:10   64.8    21    5.0   320      5.7   930.6    0.00       0    83.0
 274   20:20   65.8    21    3.8   345      5.2   930.6    0.00       0    82.8
 274   20:30   66.2    22    4.0   332      5.6   930.7    0.00       0    82.6
 274   20:40   65.3    25    4.1   318      5.6   930.7    0.00       0    82.4

Return to Highlands Peak graphs page.


Western Regional Climate Center,wrcc@dri.edu